Relevés horaires Matro (Suisse)


Relevés horaires à Matro - Dimanche 13 Mars 2022
Heure UTC1 Température [°C] Vent [km/h] Hum. [%] Pres.4 [hPa] Visi. [Km] Nébu. [octa] Préc.5 [mm] Cond.
2m. Res. Ros. Dir.2 Vit. Moy. Raf.3
23:00 -8.1 -15.9 -9.1 SSE 22.2 -- 33.3 92 850(0.5/3h) -- -- -- --
22:00 -7.7 -15.9 -9.6 SSE 25.9 -- 31.5 86 850(1.1/3h) -- -- -- --
21:00 -7.4 -15 -7.7 SSE 22.2 -- 29.6 98 850(1.2/3h) -- -- -- --
20:00 -6.7 -12.6 -8.9 SSE 14.8 -- 22.2 84 850(1.3/3h) -- -- -- --
19:00 -6.1 -12.3 -10.6 S 16.7 -- 25.9 70 850(0.9/3h) -- -- -- --
18:00 -5.6 -11.7 -12.0 SSE 16.7 -- 31.5 61 850(0.6/3h) -- -- -- --
17:00 -5.5 -12.6 -9.1 SSE 22.2 -- 31.5 76 850(0.3/3h) -- -- -- --
16:00 -5.4 -12.4 -9.4 SSE 22.2 -- 27.8 73 850(0.0/3h) -- -- -- --
15:00 -4.8 -10.3 -8.2 SSE 14.8 -- 25.9 77 850(-0.1/3h) -- -- -- --
14:00 -5.1 -10.2 -8.1 SSE 13.0 -- 22.2 79 850(-0.3/3h) -- -- -- --
13:00 -4.2 -9.1 -7.2 SSE 13.0 -- 25.9 80 850(-0.2/3h) -- -- -- --
12:00 -4.6 -10 -6.5 SSE 14.8 -- 22.2 87 850(0.1/3h) -- -- -- --
11:00 -5.3 -9.4 -7.2 SSE 9.3 -- 16.7 86 850(0.4/3h) -- -- -- --
10:00 -6.8 -9.6 -7.1 S 5.6 -- 20.4 98 850(0.5/3h) -- -- -- --
09:00 -6.9 -10.6 -7.4 ESE 7.4 -- 22.2 96 850(0.7/3h) -- -- -- --
08:00 -7.2 -13.2 -9.0 SE 14.8 -- 22.2 87 850(0.5/3h) -- -- -- --
07:00 -7.2 -14.4 -9.4 SSE 20.4 -- 22.2 84 850(0.4/3h) -- -- -- --
06:00 -7.1 -13.5 -9.7 SE 16.7 -- 18.5 82 850(-0.2/3h) -- -- -- --
05:00 -7.1 -12.7 -9.7 ESE 13.0 -- 14.8 82 850(-0.7/3h) -- -- -- --
04:00 -7.1 -11.6 -9.7 ESE 9.3 -- 11.1 82 850(-1.1/3h) -- -- -- --
03:00 -7.2 -11.7 -9.7 SE 9.3 -- 18.5 82 850(-1.1/3h) -- -- -- --
02:00 -7.6 -12.2 -9.5 ESE 9.3 -- 16.7 86 850(-0.7/3h) -- -- -- --
01:00 -7.9 -14.1 -8.8 ESE 14.8 -- 18.5 93 850(-0.4/3h) -- -- -- --
00:00 -8.0 -13.8 -8.6 SE 13.0 -- 31.5 95 850(-0.1/3h) -- -- -- --

1 Coordinated Universal Time. Actuellement il est 02:00 locale et 00:00 UTC.

2 Le vent souffle depuis la direction indiquée vers la direction oposée.

3 Les rafales max. sont disponible 40 min après l'heure du relevé.

4 Pour les stations d'altitude (plus de 600m) le géopotentiel du niveau le plus proche de la pression obligatoire est indiqué.

5 Les stations disposant d'un diffuseur peuvent indiquer "trace". Cela signifie que des précipitations ont touchés le sol mais que la quantité est inférieure à 0.1 mm.

Copyright

Les données affichées sur cette page sont la propriété exclusive de Météo Suisse.

Récapitulatif de la journée
Température [°C] Vent [km/h] Ensoleillement4 [h] Precipitations totale5 [mm] Pression [Hpa]
Min1 Max.2 Moy.3 Max. Min Max.
-8.2 -4.1 0 33.3 2 h 36 min 0 850.0 850.0

1 Température minimale relevée entre 18:00 UTC la veille et 18:00 UTC le jour donné.

2 Température maximale relevée entre 06:00 UTC le jour donné et 06:00 UTC le lendemain.

3 Vent moyen de la journée basé sur les relevés horaires.

4 Ensoleillement en heures relevé entre 06:00 UTC la veille et 06:00 UTC le jour donné.

5 Précipitations totales tombées entre 06:00 UTC la jour donné et 06:00 UTC le lendemain.

Graphiques horaires